Aviation Digital Data Service (ADDS)

Output produced by METARs form (2004 UTC 24 March 2017)
found at http://www.aviationweather.gov/adds/metars/
 
KEWR 241932Z 2420/2524 22012G22KT P6SM BKN040 
     FM242300 22007G17KT P6SM BKN040 
     FM250300 23008KT P6SM SCT040 BKN080 
     FM251300 23005KT P6SM BKN030 
     FM251500 26007KT 6SM BR OVC050 
     FM251800 02008KT 6SM BR OVC015